createdAt,value
2018-09-17T00:01:16.208Z,8.10
2018-09-17T00:03:21.030Z,7.30
2018-09-17T00:05:25.896Z,7.30
2018-09-17T00:07:30.786Z,8.10
2018-09-17T00:09:35.684Z,8.17
2018-09-17T00:11:40.692Z,7.53
2018-09-17T00:13:45.723Z,8.43
2018-09-17T00:15:50.604Z,8.30
2018-09-17T00:17:55.148Z,7.90
2018-09-17T00:20:00.764Z,8.33
2018-09-17T00:22:05.877Z,8.17
2018-09-17T00:24:10.905Z,8.27
2018-09-17T00:26:18.502Z,7.60
2018-09-17T00:28:23.450Z,8.07
2018-09-17T00:30:28.221Z,7.50
2018-09-17T00:32:32.920Z,8.00
2018-09-17T00:34:37.642Z,7.17
2018-09-17T00:36:42.843Z,7.70
2018-09-17T00:38:47.666Z,8.10
2018-09-17T00:40:52.463Z,8.10
2018-09-17T00:42:57.320Z,7.93
2018-09-17T00:45:02.866Z,8.00
2018-09-17T00:47:07.853Z,7.50
2018-09-17T00:49:12.448Z,7.67
2018-09-17T00:51:18.397Z,7.73
2018-09-17T00:53:23.362Z,7.77
2018-09-17T00:55:28.439Z,7.33
2018-09-17T00:57:33.556Z,7.87
2018-09-17T00:59:38.452Z,7.57
2018-09-17T01:01:43.273Z,7.80
2018-09-17T01:03:48.376Z,8.27
2018-09-17T01:05:53.419Z,8.03
2018-09-17T01:07:58.174Z,7.40
2018-09-17T01:10:04.363Z,8.00
2018-09-17T01:12:09.281Z,8.40
2018-09-17T01:14:14.144Z,8.40
2018-09-17T01:16:18.718Z,8.90
2018-09-17T01:18:23.637Z,6.70
2018-09-17T01:20:28.775Z,7.93
2018-09-17T01:22:33.703Z,8.10
2018-09-17T01:24:38.603Z,8.30
2018-09-17T01:26:43.358Z,7.90
2018-09-17T01:28:48.323Z,9.17
2018-09-17T01:30:53.503Z,8.83
2018-09-17T01:32:58.554Z,7.30
2018-09-17T01:35:03.242Z,7.40
2018-09-17T01:37:07.973Z,9.10
2018-09-17T01:39:14.024Z,8.57
2018-09-17T01:41:19.126Z,8.50
2018-09-17T01:43:24.184Z,8.40
2018-09-17T01:45:29.091Z,7.63
2018-09-17T01:47:33.919Z,8.43
2018-09-17T01:49:38.776Z,8.50
2018-09-17T01:51:43.951Z,8.37
2018-09-17T01:53:48.901Z,8.10
2018-09-17T01:55:53.864Z,7.70
2018-09-17T01:57:58.785Z,8.00
2018-09-17T02:00:03.923Z,7.90
2018-09-17T02:02:09.925Z,9.03
2018-09-17T02:04:15.091Z,7.80
2018-09-17T02:06:19.807Z,7.63
2018-09-17T02:08:24.690Z,8.10
2018-09-17T02:10:29.885Z,8.20
2018-09-17T02:12:34.910Z,8.37
2018-09-17T02:14:39.726Z,9.80
2018-09-17T02:16:44.842Z,9.50
2018-09-17T02:18:49.793Z,8.07
2018-09-17T02:20:54.795Z,9.23
2018-09-17T02:22:59.684Z,8.30
2018-09-17T02:25:04.628Z,8.20
2018-09-17T02:27:09.633Z,8.00
2018-09-17T02:29:14.549Z,7.77
2018-09-17T02:31:19.645Z,8.07
2018-09-17T02:33:24.679Z,7.83
2018-09-17T02:35:29.584Z,8.50
2018-09-17T02:37:34.415Z,9.20
2018-09-17T02:39:39.182Z,8.80
2018-09-17T02:41:44.124Z,7.67
2018-09-17T02:43:49.125Z,7.97
2018-09-17T02:45:53.986Z,9.07
2018-09-17T02:47:58.890Z,8.50
2018-09-17T02:50:04.104Z,7.50
2018-09-17T02:52:08.928Z,8.57
2018-09-17T02:54:13.787Z,8.77
2018-09-17T02:56:18.945Z,8.33
2018-09-17T02:58:23.840Z,8.57
2018-09-17T03:00:28.794Z,7.97
2018-09-17T03:02:33.811Z,7.63
2018-09-17T03:04:38.964Z,8.30
2018-09-17T03:06:43.749Z,7.30
2018-09-17T03:08:48.703Z,8.07
2018-09-17T03:10:53.403Z,8.63
2018-09-17T03:12:58.061Z,8.13
2018-09-17T03:15:02.952Z,7.20
2018-09-17T03:17:08.811Z,7.70
2018-09-17T03:19:13.957Z,7.90
2018-09-17T03:21:18.775Z,8.10
2018-09-17T03:23:23.832Z,7.80
2018-09-17T03:25:28.616Z,8.67
2018-09-17T03:27:33.605Z,7.70
2018-09-17T03:29:38.609Z,8.00
2018-09-17T03:31:43.620Z,8.70
2018-09-17T03:33:48.631Z,8.67
2018-09-17T03:35:53.569Z,7.97
2018-09-17T03:37:58.453Z,7.20
2018-09-17T03:40:03.586Z,8.03
2018-09-17T03:42:08.405Z,8.00
2018-09-17T03:44:13.126Z,7.33
2018-09-17T03:46:18.153Z,7.67
2018-09-17T03:48:23.313Z,8.03
2018-09-17T03:50:28.186Z,7.97
2018-09-17T03:52:33.235Z,7.67
2018-09-17T03:54:38.063Z,8.13
2018-09-17T03:56:42.880Z,7.90
2018-09-17T03:58:47.840Z,7.67
2018-09-17T04:00:53.127Z,7.07
2018-09-17T04:02:58.119Z,8.50
2018-09-17T04:05:03.032Z,9.00
2018-09-17T04:07:07.982Z,8.40
2018-09-17T04:09:12.935Z,7.63
2018-09-17T04:11:18.039Z,7.83
2018-09-17T04:13:22.912Z,7.97
2018-09-17T04:15:28.305Z,9.27
2018-09-17T04:17:33.085Z,8.60
2018-09-17T04:19:37.997Z,7.67
2018-09-17T04:21:43.172Z,9.43
2018-09-17T04:23:48.280Z,8.93
2018-09-17T04:25:52.876Z,7.57
2018-09-17T04:27:57.876Z,7.90
2018-09-17T04:30:02.879Z,9.43
2018-09-17T04:32:07.816Z,8.63
2018-09-17T04:34:12.826Z,8.07
2018-09-17T04:36:17.898Z,9.00
2018-09-17T04:38:22.859Z,8.03
2018-09-17T04:40:27.898Z,8.57
2018-09-17T04:42:32.744Z,9.03
2018-09-17T04:44:37.589Z,9.47
2018-09-17T04:46:42.817Z,9.60
2018-09-17T04:48:47.787Z,9.23
2018-09-17T04:50:52.694Z,8.33
2018-09-17T04:52:57.649Z,8.77
2018-09-17T04:55:02.718Z,8.47
2018-09-17T04:57:07.480Z,8.17
2018-09-17T04:59:12.363Z,9.57
2018-09-17T05:01:17.253Z,8.03
2018-09-17T05:03:22.134Z,8.57
2018-09-17T05:05:27.108Z,8.90
2018-09-17T05:07:32.364Z,8.47
2018-09-17T05:09:37.256Z,8.40
2018-09-17T05:11:42.064Z,8.63
2018-09-17T05:13:46.784Z,9.00
2018-09-17T05:15:51.793Z,7.93
2018-09-17T05:17:56.986Z,8.43
2018-09-17T05:20:02.093Z,9.33
2018-09-17T05:22:07.851Z,8.93
2018-09-17T05:24:12.801Z,9.43
2018-09-17T05:26:17.767Z,8.80
2018-09-17T05:28:22.923Z,8.47
2018-09-17T05:30:27.746Z,7.80
2018-09-17T05:32:32.463Z,8.83
2018-09-17T05:34:37.492Z,8.97
2018-09-17T05:36:42.263Z,8.97
2018-09-17T05:38:47.275Z,8.83
2018-09-17T05:40:52.141Z,8.17
2018-09-17T05:42:56.871Z,8.60
2018-09-17T05:45:01.809Z,9.03
2018-09-17T05:47:06.932Z,8.63
2018-09-17T05:49:11.877Z,8.50
2018-09-17T05:51:16.756Z,9.50
2018-09-17T05:53:21.732Z,9.30
2018-09-17T05:55:26.599Z,9.10
2018-09-17T05:57:31.571Z,9.80
2018-09-17T05:59:36.220Z,8.90
2018-09-17T06:01:42.055Z,9.53
2018-09-17T06:03:46.955Z,9.03
2018-09-17T06:05:52.127Z,9.43
2018-09-17T06:07:57.048Z,8.50
2018-09-17T06:10:01.983Z,9.00
2018-09-17T06:12:06.560Z,9.20
2018-09-17T06:14:11.632Z,9.77
2018-09-17T06:16:16.621Z,8.20
2018-09-17T06:18:21.625Z,9.00
2018-09-17T06:20:26.425Z,9.63
2018-09-17T06:22:31.393Z,10.47
2018-09-17T06:24:36.597Z,8.97
2018-09-17T06:26:41.594Z,8.80
2018-09-17T06:28:46.504Z,9.97
2018-09-17T06:30:51.689Z,9.30
2018-09-17T06:32:56.456Z,9.40
2018-09-17T06:35:01.172Z,9.33
2018-09-17T06:37:06.130Z,8.87
2018-09-17T06:39:11.621Z,9.10
2018-09-17T06:41:16.510Z,9.20
2018-09-17T06:43:21.462Z,10.17
2018-09-17T06:45:26.377Z,9.30
2018-09-17T06:47:32.347Z,9.97
2018-09-17T06:49:37.351Z,8.60
2018-09-17T06:51:42.272Z,9.07
2018-09-17T06:53:47.234Z,8.80
2018-09-17T06:55:52.259Z,9.23
2018-09-17T06:57:57.257Z,8.73
2018-09-17T07:00:02.116Z,8.50
2018-09-17T07:02:06.989Z,8.00
2018-09-17T07:04:11.954Z,8.17
2018-09-17T07:06:16.943Z,8.43
2018-09-17T07:08:22.875Z,8.93
2018-09-17T07:10:27.927Z,8.97
2018-09-17T07:12:33.086Z,8.83
2018-09-17T07:14:37.893Z,9.00
2018-09-17T07:16:42.795Z,7.70
2018-09-17T07:18:47.659Z,8.83
2018-09-17T07:20:52.729Z,8.33
2018-09-17T07:22:57.734Z,8.17
2018-09-17T07:25:02.678Z,9.20
2018-09-17T07:27:07.743Z,9.00
2018-09-17T07:29:12.558Z,8.30
2018-09-17T07:31:17.643Z,8.00
2018-09-17T07:33:22.451Z,9.50
2018-09-17T07:35:27.285Z,8.23
2018-09-17T07:37:32.486Z,7.93
2018-09-17T07:39:37.502Z,7.77
2018-09-17T07:41:42.505Z,9.43
2018-09-17T07:43:48.850Z,8.03
2018-09-17T07:45:53.851Z,9.23
2018-09-17T07:47:58.645Z,8.77
2018-09-17T07:50:03.502Z,9.30
2018-09-17T07:52:08.458Z,8.70
2018-09-17T07:54:13.383Z,8.97
2018-09-17T07:56:18.301Z,9.60
2018-09-17T07:58:23.216Z,8.47
2018-09-17T08:00:28.142Z,8.97
2018-09-17T08:02:32.914Z,8.60
2018-09-17T08:04:37.867Z,8.40
2018-09-17T08:06:42.628Z,9.20
2018-09-17T08:08:47.509Z,8.80
2018-09-17T08:10:52.316Z,9.20
2018-09-17T08:12:57.216Z,8.53
2018-09-17T08:15:02.139Z,8.70
2018-09-17T08:17:06.907Z,8.93
2018-09-17T08:19:12.111Z,8.67
2018-09-17T08:21:17.015Z,8.53
2018-09-17T08:23:21.855Z,8.83
2018-09-17T08:25:26.905Z,9.10
2018-09-17T08:27:31.782Z,10.07
2018-09-17T08:29:36.877Z,8.70
2018-09-17T08:31:41.815Z,9.40
2018-09-17T08:33:46.614Z,8.40
2018-09-17T08:35:51.623Z,8.40
2018-09-17T08:37:56.407Z,9.33
2018-09-17T08:40:01.485Z,8.57
2018-09-17T08:42:06.352Z,8.30
2018-09-17T08:44:11.627Z,8.87
2018-09-17T08:46:16.537Z,9.13
2018-09-17T08:48:21.289Z,9.90
2018-09-17T08:50:26.213Z,8.30
2018-09-17T08:52:31.139Z,9.10
2018-09-17T08:54:39.868Z,8.60
2018-09-17T08:56:51.601Z,9.43
2018-09-17T08:59:04.888Z,8.93
2018-09-17T09:02:14.373Z,8.90
2018-09-17T09:04:23.605Z,9.07
2018-09-17T09:06:32.449Z,8.87
2018-09-17T09:08:37.290Z,9.70
2018-09-17T09:10:46.481Z,8.60
2018-09-17T09:12:55.230Z,8.97
2018-09-17T09:15:03.944Z,8.90
2018-09-17T09:17:09.073Z,8.70
2018-09-17T09:19:13.966Z,8.40
2018-09-17T09:21:18.911Z,8.30
2018-09-17T09:23:23.812Z,9.30
2018-09-17T09:25:28.876Z,9.80
2018-09-17T09:27:33.619Z,9.07
2018-09-17T09:29:38.659Z,9.80
2018-09-17T09:31:43.497Z,8.10
2018-09-17T09:33:48.423Z,8.90
2018-09-17T09:35:53.463Z,9.30
2018-09-17T09:37:58.221Z,8.47
2018-09-17T09:40:03.001Z,9.10
2018-09-17T09:42:08.214Z,8.10
2018-09-17T09:44:12.964Z,8.43
2018-09-17T09:46:18.615Z,8.90
2018-09-17T09:48:23.472Z,9.80
2018-09-17T09:50:28.460Z,9.87
2018-09-17T09:52:33.394Z,8.43
2018-09-17T09:54:38.510Z,8.83
2018-09-17T09:56:43.228Z,9.10
2018-09-17T09:58:48.047Z,8.83
2018-09-17T10:00:57.101Z,8.50
2018-09-17T10:03:07.616Z,8.83
2018-09-17T10:05:12.523Z,8.70
2018-09-17T10:07:17.589Z,9.87
2018-09-17T10:09:26.537Z,8.50
2018-09-17T10:11:35.460Z,8.37
2018-09-17T10:13:44.277Z,9.20
2018-09-17T10:15:57.282Z,7.57
2018-09-17T10:18:05.778Z,8.03
2018-09-17T10:20:10.469Z,8.57
2018-09-17T10:22:15.577Z,9.20
2018-09-17T10:24:20.471Z,8.87
2018-09-17T10:26:24.999Z,8.60
2018-09-17T10:28:30.099Z,9.60
2018-09-17T10:30:34.830Z,9.00
2018-09-17T10:32:39.836Z,9.00
2018-09-17T10:34:44.936Z,8.67
2018-09-17T10:36:49.982Z,9.60
2018-09-17T10:38:54.885Z,7.97
2018-09-17T10:41:00.337Z,8.93
2018-09-17T10:43:05.440Z,8.90
2018-09-17T10:45:10.419Z,9.20
2018-09-17T10:47:15.326Z,8.10
2018-09-17T10:49:20.353Z,9.00
2018-09-17T10:51:25.336Z,8.83
2018-09-17T10:53:30.273Z,8.60
2018-09-17T10:55:35.175Z,8.63
2018-09-17T10:57:40.340Z,8.57
2018-09-17T10:59:45.453Z,8.67
2018-09-17T11:01:50.133Z,9.37
2018-09-17T11:03:54.898Z,8.20
2018-09-17T11:05:59.509Z,8.97
2018-09-17T11:08:04.563Z,7.67
2018-09-17T11:10:10.812Z,9.20
2018-09-17T11:12:15.706Z,7.50
2018-09-17T11:14:20.558Z,8.63
2018-09-17T11:16:25.715Z,7.90
2018-09-17T11:18:30.676Z,9.00
2018-09-17T11:20:35.638Z,8.07
2018-09-17T11:22:41.273Z,9.67
2018-09-17T11:24:46.384Z,8.10
2018-09-17T11:26:51.059Z,8.97
2018-09-17T11:28:55.919Z,8.17
2018-09-17T11:31:00.734Z,8.43
2018-09-17T11:33:05.818Z,7.97
2018-09-17T11:35:10.751Z,8.33
2018-09-17T11:37:15.755Z,8.33
2018-09-17T11:39:20.779Z,9.20
2018-09-17T11:41:25.964Z,8.83
2018-09-17T11:43:30.884Z,8.50
2018-09-17T11:45:35.972Z,9.20
2018-09-17T11:47:41.085Z,8.73
2018-09-17T11:49:45.934Z,9.57
2018-09-17T11:51:50.802Z,8.50
2018-09-17T11:53:55.777Z,9.60
2018-09-17T11:56:00.928Z,9.30
2018-09-17T11:58:05.716Z,8.73
2018-09-17T12:00:10.606Z,7.90
2018-09-17T12:02:19.545Z,8.40
2018-09-17T12:04:28.458Z,9.87
2018-09-17T12:06:37.549Z,9.13
2018-09-17T12:08:42.380Z,9.50
2018-09-17T12:10:47.352Z,8.90
2018-09-17T12:12:52.520Z,8.13
2018-09-17T12:14:57.421Z,9.33
2018-09-17T12:17:02.206Z,8.93
2018-09-17T12:19:07.335Z,8.20
2018-09-17T12:21:13.905Z,8.77
2018-09-17T12:23:18.748Z,8.80
2018-09-17T12:25:23.691Z,9.23
2018-09-17T12:27:28.751Z,9.90
2018-09-17T12:29:34.576Z,8.03
2018-09-17T12:31:39.471Z,8.90
2018-09-17T12:33:44.525Z,9.20
2018-09-17T12:35:49.470Z,9.13
2018-09-17T12:37:54.580Z,8.77
2018-09-17T12:39:59.538Z,9.50
2018-09-17T12:42:04.610Z,8.40
2018-09-17T12:44:09.577Z,9.07
2018-09-17T12:46:14.607Z,8.50
2018-09-17T12:48:19.345Z,8.90
2018-09-17T12:50:24.684Z,10.00
2018-09-17T12:52:29.538Z,9.30
2018-09-17T12:54:34.580Z,9.17
2018-09-17T12:56:39.990Z,9.87
2018-09-17T12:58:44.862Z,8.90
2018-09-17T13:00:49.772Z,8.47
2018-09-17T13:02:54.882Z,8.57
2018-09-17T13:04:59.645Z,8.60
2018-09-17T13:07:04.449Z,9.43
2018-09-17T13:09:09.420Z,9.00
2018-09-17T13:11:14.251Z,8.77
2018-09-17T13:13:19.245Z,9.57
2018-09-17T13:15:24.037Z,8.40
2018-09-17T13:17:29.001Z,8.20
2018-09-17T13:19:33.773Z,8.43
2018-09-17T13:21:38.740Z,7.50
2018-09-17T13:23:43.709Z,8.43
2018-09-17T13:25:48.786Z,9.63
2018-09-17T13:27:53.709Z,9.10
2018-09-17T13:29:58.636Z,9.07
2018-09-17T13:32:03.633Z,7.87
2018-09-17T13:34:08.809Z,8.70
2018-09-17T13:36:13.815Z,9.50
2018-09-17T13:38:18.836Z,10.10
2018-09-17T13:40:23.827Z,9.67
2018-09-17T13:42:28.820Z,10.00
2018-09-17T13:44:34.110Z,8.77
2018-09-17T13:46:39.163Z,8.77
2018-09-17T13:48:44.045Z,8.77
2018-09-17T13:50:48.996Z,9.00
2018-09-17T13:52:54.035Z,9.03
2018-09-17T13:54:58.971Z,9.00
2018-09-17T13:57:03.953Z,10.00
2018-09-17T13:59:08.777Z,9.73
2018-09-17T14:01:13.907Z,10.67
2018-09-17T14:03:18.751Z,11.00
2018-09-17T14:05:23.727Z,11.57
2018-09-17T14:07:28.790Z,11.43
2018-09-17T14:09:33.534Z,11.90
2018-09-17T14:11:38.561Z,10.10
2018-09-17T14:13:43.433Z,11.27
2018-09-17T14:15:52.422Z,11.50
2018-09-17T14:17:57.738Z,10.10
2018-09-17T14:20:02.683Z,9.93
2018-09-17T14:22:07.610Z,9.57
2018-09-17T14:24:12.357Z,11.00
2018-09-17T14:26:17.184Z,8.97
2018-09-17T14:28:22.622Z,8.80
2018-09-17T14:30:27.298Z,10.33
2018-09-17T14:32:36.443Z,9.83
2018-09-17T14:34:41.519Z,10.00
2018-09-17T14:36:46.394Z,9.87
2018-09-17T14:38:51.339Z,9.83
2018-09-17T14:40:57.708Z,9.93
2018-09-17T14:43:02.675Z,10.10
2018-09-17T14:45:07.404Z,10.77
2018-09-17T14:47:12.469Z,9.77
2018-09-17T14:49:17.447Z,10.13
2018-09-17T14:51:22.373Z,10.20
2018-09-17T14:53:27.442Z,10.80
2018-09-17T14:55:32.291Z,9.43
2018-09-17T14:57:37.137Z,9.70
2018-09-17T14:59:42.198Z,9.47
2018-09-17T15:01:47.173Z,10.70
2018-09-17T15:03:52.181Z,9.60
2018-09-17T15:05:57.126Z,10.27
2018-09-17T15:08:02.158Z,9.33
2018-09-17T15:10:07.080Z,9.30
2018-09-17T15:12:12.163Z,9.33
2018-09-17T15:14:17.443Z,9.27
2018-09-17T15:16:22.543Z,9.47
2018-09-17T15:18:27.510Z,9.93
2018-09-17T15:20:32.674Z,10.03
2018-09-17T15:22:37.472Z,9.10
2018-09-17T15:24:42.134Z,9.70
2018-09-17T15:26:47.383Z,10.60
2018-09-17T15:28:52.271Z,10.37
2018-09-17T15:30:57.264Z,9.10
2018-09-17T15:33:02.157Z,9.63
2018-09-17T15:35:07.135Z,10.20
2018-09-17T15:37:12.164Z,9.67
2018-09-17T15:39:17.130Z,10.77
2018-09-17T15:41:21.925Z,10.17
2018-09-17T15:43:26.921Z,10.87
2018-09-17T15:45:32.211Z,12.57
2018-09-17T15:47:37.393Z,10.97
2018-09-17T15:49:42.321Z,12.03
2018-09-17T15:51:47.275Z,11.60
2018-09-17T15:53:52.255Z,10.57
2018-09-17T15:55:57.581Z,11.10
2018-09-17T15:58:02.685Z,9.67
2018-09-17T16:00:07.438Z,10.77
2018-09-17T16:02:13.833Z,11.37
2018-09-17T16:04:18.847Z,10.80
2018-09-17T16:06:23.831Z,10.57
2018-09-17T16:08:29.185Z,11.10
2018-09-17T16:10:34.093Z,9.83
2018-09-17T16:12:39.119Z,10.40
2018-09-17T16:14:43.911Z,9.57
2018-09-17T16:16:49.159Z,10.63
2018-09-17T16:18:54.022Z,10.73
2018-09-17T16:20:58.932Z,11.43
2018-09-17T16:23:03.799Z,10.87
2018-09-17T16:25:08.473Z,9.67
2018-09-17T16:27:13.282Z,9.47
2018-09-17T16:29:18.488Z,9.87
2018-09-17T16:31:23.333Z,10.97
2018-09-17T16:33:28.226Z,9.07
2018-09-17T16:35:33.284Z,10.13
2018-09-17T16:37:38.379Z,10.13
2018-09-17T16:39:43.350Z,9.83
2018-09-17T16:41:49.263Z,10.27
2018-09-17T16:43:54.409Z,9.93
2018-09-17T16:45:59.566Z,10.57
2018-09-17T16:48:04.528Z,11.00
2018-09-17T16:50:09.346Z,11.17
2018-09-17T16:52:14.369Z,11.17
2018-09-17T16:54:19.171Z,11.50
2018-09-17T16:56:24.135Z,11.33
2018-09-17T16:58:29.090Z,11.37
2018-09-17T17:00:34.136Z,12.10
2018-09-17T17:02:39.028Z,12.57
2018-09-17T17:04:44.100Z,11.87
2018-09-17T17:06:49.319Z,12.33
2018-09-17T17:08:54.234Z,12.57
2018-09-17T17:10:59.127Z,12.03
2018-09-17T17:13:04.434Z,11.17
2018-09-17T17:15:09.176Z,11.90
2018-09-17T17:17:14.069Z,10.50
2018-09-17T17:19:18.761Z,11.67
2018-09-17T17:21:23.686Z,12.90
2018-09-17T17:23:28.421Z,10.67
2018-09-17T17:25:33.297Z,10.80
2018-09-17T17:27:38.169Z,10.23
2018-09-17T17:29:44.102Z,11.90
2018-09-17T17:31:48.924Z,10.80
2018-09-17T17:33:54.082Z,10.33
2018-09-17T17:35:59.137Z,9.83
2018-09-17T17:38:03.940Z,12.07
2018-09-17T17:40:08.690Z,11.13
2018-09-17T17:42:13.678Z,10.17
2018-09-17T17:44:18.689Z,11.50
2018-09-17T17:46:23.690Z,10.97
2018-09-17T17:48:29.011Z,11.27
2018-09-17T17:50:33.915Z,9.30
2018-09-17T17:52:38.861Z,11.13
2018-09-17T17:54:44.004Z,10.97
2018-09-17T17:56:49.035Z,10.90
2018-09-17T17:58:53.843Z,11.00
2018-09-17T18:00:58.488Z,11.30
2018-09-17T18:03:03.451Z,12.20
2018-09-17T18:05:08.127Z,12.70
2018-09-17T18:07:13.025Z,11.93
2018-09-17T18:09:17.950Z,12.60
2018-09-17T18:11:22.933Z,12.13
2018-09-17T18:13:27.883Z,12.57
2018-09-17T18:15:33.996Z,12.50
2018-09-17T18:17:38.896Z,12.17
2018-09-17T18:19:44.052Z,11.87
2018-09-17T18:21:49.018Z,13.20
2018-09-17T18:23:53.968Z,12.90
2018-09-17T18:25:58.929Z,12.70
2018-09-17T18:28:04.108Z,13.60
2018-09-17T18:30:08.887Z,13.90
2018-09-17T18:32:13.635Z,13.10
2018-09-17T18:34:18.772Z,14.60
2018-09-17T18:36:24.243Z,13.40
2018-09-17T18:38:29.305Z,13.67
2018-09-17T18:40:34.325Z,13.37
2018-09-17T18:42:39.256Z,13.40
2018-09-17T18:44:44.275Z,13.53
2018-09-17T18:46:49.608Z,14.03
2018-09-17T18:48:54.531Z,14.40
2018-09-17T18:50:59.227Z,13.50
2018-09-17T18:53:04.499Z,13.03
2018-09-17T18:55:09.626Z,14.53
2018-09-17T18:57:14.584Z,13.87
2018-09-17T18:59:19.594Z,14.60
2018-09-17T19:01:24.775Z,15.23
2018-09-17T19:03:29.746Z,14.53
2018-09-17T19:05:34.574Z,14.90
2018-09-17T19:07:39.479Z,16.00
2018-09-17T19:09:48.609Z,15.67
2018-09-17T19:11:53.717Z,16.87
2018-09-17T19:14:02.656Z,15.77
2018-09-17T19:16:07.486Z,17.20
2018-09-17T19:18:16.341Z,17.17
2018-09-17T19:20:21.480Z,18.93
2018-09-17T19:22:30.769Z,16.50
2018-09-17T19:24:35.997Z,15.23
2018-09-17T19:26:40.884Z,15.53
2018-09-17T19:28:49.968Z,16.30
2018-09-17T19:30:55.022Z,16.00
2018-09-17T19:32:59.858Z,14.97
2018-09-17T19:35:04.776Z,16.27
2018-09-17T19:37:14.282Z,14.53
2018-09-17T19:39:23.529Z,14.97
2018-09-17T19:41:28.719Z,15.30
2018-09-17T19:43:33.976Z,15.40
2018-09-17T19:45:42.826Z,16.03
2018-09-17T19:47:47.891Z,15.47
2018-09-17T19:49:53.107Z,15.27
2018-09-17T19:52:02.225Z,15.47
2018-09-17T19:54:07.302Z,16.60
2018-09-17T19:56:12.346Z,14.83
2018-09-17T19:58:21.404Z,16.63
2018-09-17T20:00:26.517Z,15.00
2018-09-17T20:02:31.360Z,15.27
2018-09-17T20:04:40.280Z,16.60
2018-09-17T20:06:45.295Z,15.90
2018-09-17T20:08:50.327Z,16.17
2018-09-17T20:10:55.083Z,14.60
2018-09-17T20:13:00.012Z,14.50
2018-09-17T20:15:04.709Z,14.70
2018-09-17T20:17:09.481Z,15.80
2018-09-17T20:19:14.602Z,15.27
2018-09-17T20:21:19.520Z,14.40
2018-09-17T20:23:24.467Z,15.40
2018-09-17T20:25:29.247Z,14.67
2018-09-17T20:27:34.229Z,15.00
2018-09-17T20:29:39.250Z,16.27
2018-09-17T20:31:44.192Z,16.30
2018-09-17T20:33:48.989Z,17.00
2018-09-17T20:35:54.002Z,15.50
2018-09-17T20:37:59.265Z,15.43
2018-09-17T20:40:04.167Z,14.17
2018-09-17T20:42:08.945Z,15.53
2018-09-17T20:44:14.089Z,15.40
2018-09-17T20:46:19.466Z,17.27
2018-09-17T20:48:25.865Z,15.47
2018-09-17T20:50:32.408Z,15.70
2018-09-17T20:52:37.298Z,15.10
2018-09-17T20:54:42.156Z,15.50
2018-09-17T20:56:47.244Z,15.00
2018-09-17T20:58:52.126Z,15.73
2018-09-17T21:00:57.158Z,14.07
2018-09-17T21:03:02.255Z,14.73
2018-09-17T21:05:07.393Z,14.40
2018-09-17T21:07:12.241Z,14.27
2018-09-17T21:09:17.196Z,16.93
2018-09-17T21:11:22.380Z,16.20
2018-09-17T21:13:27.297Z,15.87
2018-09-17T21:15:32.167Z,15.57
2018-09-17T21:17:37.104Z,15.63
2018-09-17T21:19:42.073Z,15.50
2018-09-17T21:21:47.070Z,16.60
2018-09-17T21:23:52.128Z,14.90
2018-09-17T21:25:56.965Z,16.00
2018-09-17T21:28:01.948Z,15.00
2018-09-17T21:30:06.943Z,15.57
2018-09-17T21:32:11.826Z,14.30
2018-09-17T21:34:16.657Z,15.27
2018-09-17T21:36:21.365Z,15.93
2018-09-17T21:38:26.508Z,15.87
2018-09-17T21:40:31.381Z,15.77
2018-09-17T21:42:36.261Z,15.80
2018-09-17T21:44:41.075Z,15.60
2018-09-17T21:46:46.089Z,16.00
2018-09-17T21:48:51.017Z,15.87
2018-09-17T21:50:55.967Z,16.60
2018-09-17T21:53:00.972Z,15.80
2018-09-17T21:55:06.105Z,16.70
2018-09-17T21:57:11.027Z,17.33
2018-09-17T21:59:16.116Z,16.60
2018-09-17T22:01:22.478Z,15.30
2018-09-17T22:03:27.289Z,17.27
2018-09-17T22:05:32.214Z,17.50
2018-09-17T22:07:37.292Z,16.33
2018-09-17T22:09:42.298Z,16.77
2018-09-17T22:11:47.424Z,17.70
2018-09-17T22:13:52.660Z,19.20
2018-09-17T22:15:57.609Z,18.73
2018-09-17T22:18:02.399Z,17.87
2018-09-17T22:20:07.465Z,19.30
2018-09-17T22:22:12.415Z,18.20
2018-09-17T22:24:17.449Z,18.73
2018-09-17T22:26:22.320Z,18.10
2018-09-17T22:28:27.064Z,17.90
2018-09-17T22:30:32.178Z,19.20
2018-09-17T22:32:37.157Z,18.30
2018-09-17T22:34:41.820Z,18.30
2018-09-17T22:36:46.588Z,19.00
2018-09-17T22:38:51.286Z,19.13
2018-09-17T22:40:56.215Z,19.20
2018-09-17T22:43:04.445Z,18.10
2018-09-17T22:45:09.288Z,18.37
2018-09-17T22:47:14.415Z,16.90
2018-09-17T22:49:19.988Z,17.23
2018-09-17T22:51:25.401Z,19.87
2018-09-17T22:53:30.717Z,18.90
2018-09-17T22:55:35.572Z,19.03
2018-09-17T22:57:40.651Z,17.77
2018-09-17T22:59:45.581Z,18.43
2018-09-17T23:01:50.851Z,18.20
2018-09-17T23:03:55.548Z,18.50
2018-09-17T23:06:00.658Z,18.20
2018-09-17T23:08:05.983Z,17.40
2018-09-17T23:10:11.492Z,18.20
2018-09-17T23:12:16.705Z,18.40
2018-09-17T23:14:23.173Z,18.40
2018-09-17T23:16:28.126Z,17.27
2018-09-17T23:18:32.990Z,17.27
2018-09-17T23:20:37.994Z,18.40
2018-09-17T23:22:42.904Z,18.90
2018-09-17T23:24:47.918Z,17.83
2018-09-17T23:26:53.303Z,18.67
2018-09-17T23:28:58.219Z,17.47
2018-09-17T23:31:03.010Z,17.67
2018-09-17T23:33:07.905Z,17.27
2018-09-17T23:35:12.758Z,18.80
2018-09-17T23:37:17.716Z,17.70
2018-09-17T23:39:22.642Z,18.43
2018-09-17T23:41:27.691Z,17.73
2018-09-17T23:43:33.164Z,17.90
2018-09-17T23:45:38.295Z,17.57
2018-09-17T23:47:43.089Z,17.20
2018-09-17T23:49:47.827Z,17.70
2018-09-17T23:51:52.616Z,17.23
2018-09-17T23:53:57.528Z,18.10
2018-09-17T23:56:02.480Z,17.03
2018-09-17T23:58:07.238Z,16.93
